Intu Africa Pan Airport


Codes: FYIA/
Name: Intu Africa Pan Airport
City:
Country: Namibia
Elevation: 4012 ft.

Photos at Intu Africa Pan Airport


   Photos courtesy of SpottingLog. You can add your own sightings and photos by signing up for a free trial today.



No photos found.

Weather at Intu Africa Pan Airport


Time (UTC)DescriptionTempratureWindCloud coverageVisibilityPressureHumidity
21-Feb-2024 03:00Overcast Clouds29°C11 mph, S93%10000m1010hPa22%
21-Feb-2024 06:00Overcast Clouds28°C11 mph, SE93%10000m1012hPa22%
21-Feb-2024 09:00Overcast Clouds29°C4 mph, S89%10000m1012hPa19%
21-Feb-2024 12:00Broken Clouds34°C4 mph, S82%10000m1009hPa16%
21-Feb-2024 15:00Broken Clouds37°C4 mph, SW54%10000m1006hPa14%
21-Feb-2024 18:00Broken Clouds33°C13 mph, SW76%10000m1007hPa19%
21-Feb-2024 21:00Overcast Clouds31°C11 mph, SW99%10000m1009hPa20%
22-Feb-2024 00:00Overcast Clouds28°C11 mph, S100%10000m1009hPa12%
22-Feb-2024 03:00Overcast Clouds26°C11 mph, S97%10000m1009hPa16%
22-Feb-2024 06:00Broken Clouds26°C11 mph, SE65%10000m1011hPa16%
22-Feb-2024 09:00Overcast Clouds32°C7 mph, E89%10000m1009hPa13%
22-Feb-2024 12:00Broken Clouds36°C2 mph, NW73%10000m1005hPa14%
22-Feb-2024 15:00Clear Sky37°C11 mph, SW9%10000m1004hPa13%
22-Feb-2024 18:00Clear Sky33°C2 mph, W8%10000m1004hPa16%
22-Feb-2024 21:00Broken Clouds32°C7 mph, SW80%10000m1008hPa16%
23-Feb-2024 00:00Broken Clouds28°C7 mph, SW80%10000m1008hPa15%
23-Feb-2024 03:00Broken Clouds26°C9 mph, SW70%10000m1008hPa19%
23-Feb-2024 06:00Broken Clouds27°C4 mph, SW62%10000m1009hPa20%
23-Feb-2024 09:00Broken Clouds34°C4 mph, W57%10000m1008hPa12%
23-Feb-2024 12:00Scattered Clouds38°C11 mph, NW46%10000m1004hPa13%
23-Feb-2024 15:00Light Rain31°C20 mph, W26%10000m1006hPa30%
23-Feb-2024 18:00Light Rain28°C11 mph, SE61%10000m1006hPa39%
23-Feb-2024 21:00Few Clouds28°C9 mph, W21%10000m1009hPa36%
24-Feb-2024 00:00Scattered Clouds27°C11 mph, W39%10000m1010hPa36%
24-Feb-2024 03:00Light Rain26°C7 mph, NW93%10000m1010hPa33%
24-Feb-2024 06:00Overcast Clouds28°C11 mph, SW87%10000m1011hPa17%
24-Feb-2024 09:00Overcast Clouds32°C2 mph, NW87%10000m1011hPa15%
24-Feb-2024 12:00Scattered Clouds36°C7 mph, W47%10000m1008hPa16%
24-Feb-2024 15:00Scattered Clouds33°C18 mph, NE42%10000m1007hPa24%
24-Feb-2024 18:00Light Rain29°C4 mph, N67%10000m1010hPa33%
24-Feb-2024 21:00Broken Clouds27°C9 mph, N83%10000m1013hPa37%
25-Feb-2024 00:00Broken Clouds25°C7 mph, SE81%10000m1014hPa33%
25-Feb-2024 03:00Overcast Clouds23°C11 mph, SE95%10000m1014hPa20%
25-Feb-2024 06:00Broken Clouds23°C11 mph, SE79%10000m1016hPa16%
25-Feb-2024 09:00Broken Clouds30°C11 mph, SE84%10000m1015hPa12%
25-Feb-2024 12:00Scattered Clouds34°C4 mph, E46%10000m1011hPa13%
25-Feb-2024 15:00Scattered Clouds36°C7 mph, SE39%10000m1009hPa13%
25-Feb-2024 18:00Scattered Clouds32°C7 mph, SE30%10000m1010hPa16%
25-Feb-2024 21:00Few Clouds28°C11 mph, E12%10000m1013hPa19%
26-Feb-2024 00:00Clear Sky26°C2 mph, E8%10000m1013hPa30%